Portada
METAR-TAF:

METAR-TAF

Aeropuertos :

Ponca City, Oklahoma, Estados Unidos

latitud: 36-43-50N, longitud: 097-05-59W, altitud: 307 m

Observación

El informe se hizo hace 35 minutos, a las 05:53 UTC
Viento 11 kt del sur-sureste
Temperatura 28°C
Humedad 66%
Presión 1012 hPa
Visibilidad: 16.1 km
Cielo despejado

METAR: KPNC 070553Z AUTO 16011KT 10SM CLR 28/21 A2987 RMK AO2 SLP100 T02830211 10339 20283 403610244 50003

Hora: 01:28 (06:28 UTC)

Pronóstico

El informe se hizo hace 1 hora y 8 minutos, a las 05:20 UTC
Pronóstico válido del 07 a las 06 UTC al 08 a las 06 UTC
Viento 10 kt del sur-sureste
Visibilidad: 10 km
Nubes dispersas a una altura de 25000 ft

TAF: KPNC 070520Z 0706/0806 15010KT P6SM SCT250

Observaciones y pronósticos meteorológicos de más de 4000 aeropuertos (mensajes METAR y TAF).

Los puntos amarillos y rojos representan las estaciones disponibles.

Ponga el ratón en el punto deseado para ver el nombre de la estación.

Haga clic para ver las observaciones y los pronósticos meteorológicos.

Para cambiar el mapa : haga clic en los botones verdes con una cruz de color negro para hacer un zoom, en el botón verde con un guión para alejar o en las flechas verdes para mapas adyacentes.


METAR-TAF: